Annawan, Illinois
Current Conditions -  °F | °C
As of 6:15 PM on Wednesday 28 Jan 2015 (Local Time) from KSQI Reporting Station
Clear Clear  
Wind Chill: -4°   Ceiling: Unl
Heat Index:   Visibility: 10mi
Dew Point: -2°   Wind: 13mph
Humidity: 81%   Direction: 140°SE
Pressure: 29.88"   Gusts: 21mph
Location:  41.4°N, 89.9°W
Report Text: KSQI 290015Z AUTO 14011G18KT 10SM CLR 01/M02 A2988 RMK AO1
Loading
Personal Weather Stations






























Interactive Weather Map New forecast layout! Learn more

10-Day Weather Forecast

Advertisements
Track Severe Weather on mobile